Time;durP1;ratioP1;P1;durP2;ratioP2;P2;SDS_P1;SDS_P2;PMS_P1;PMS_P2;Temp;Humidity;BMP_temperature;BMP_pressure;BME280_temperature;BME280_humidity;BME280_pressure;Samples;Min_cycle;Max_cycle;Signal;HPM_P1;HPM_P2
2022/08/14 00:00:16;;;;;;;7.13;3.53;;;;;;;14.27;100.00;95575.78;1022062;29;20054;-72
2022/08/14 00:00:47;;;;;;;5.10;3.90;;;;;;;14.25;100.00;95567.38;1024619;28;20122;-71
2022/08/14 00:01:17;;;;;;;4.00;3.60;;;;;;;14.25;100.00;95577.91;1029267;28;20089;-72
2022/08/14 00:01:47;;;;;;;4.22;3.33;;;;;;;14.24;100.00;95569.22;1026209;28;20033;-72
2022/08/14 00:02:18;;;;;;;3.83;3.40;;;;;;;14.23;100.00;95569.53;1026613;28;20038;-72
2022/08/14 00:02:48;;;;;;;4.80;3.47;;;;;;;14.22;100.00;95568.75;1030148;28;20030;-72
2022/08/14 00:03:24;;;;;;;11.88;4.15;;;;;;;14.23;100.00;95567.66;1026075;28;20015;-73
2022/08/14 00:03:55;;;;;;;11.95;4.22;;;;;;;14.22;100.00;95571.38;1023791;28;20124;-72
2022/08/14 00:04:25;;;;;;;20.35;4.80;;;;;;;14.24;100.00;95566.59;1034093;28;20077;-71
2022/08/14 00:04:56;;;;;;;5.45;3.55;;;;;;;14.19;100.00;95563.25;1023387;28;20035;-72
2022/08/14 00:05:26;;;;;;;4.78;3.35;;;;;;;14.24;100.00;95568.44;1026147;28;20114;-73
2022/08/14 00:05:58;;;;;;;5.53;3.70;;;;;;;14.24;100.00;95571.88;1028715;28;20033;-72
2022/08/14 00:06:29;;;;;;;3.83;3.15;;;;;;;14.23;100.00;95565.03;1028642;28;20074;-72
2022/08/14 00:06:59;;;;;;;3.72;3.42;;;;;;;14.26;100.00;95567.09;1026070;28;20102;-72
2022/08/14 00:07:34;;;;;;;5.53;3.58;;;;;;;14.25;100.00;95565.53;1027534;28;20035;-72
2022/08/14 00:08:04;;;;;;;4.95;3.70;;;;;;;14.26;100.00;95569.72;1029491;28;20077;-72
2022/08/14 00:08:35;;;;;;;18.10;4.00;;;;;;;14.28;100.00;95567.56;1026647;28;20085;-72
2022/08/14 00:09:05;;;;;;;10.55;4.05;;;;;;;14.28;100.00;95567.56;1031323;28;20112;-73
2022/08/14 00:09:36;;;;;;;6.47;3.95;;;;;;;14.28;100.00;95567.56;1034296;28;20069;-72
2022/08/14 00:10:09;;;;;;;7.40;3.88;;;;;;;14.24;100.00;95566.59;1030806;28;20592;-72
2022/08/14 00:10:39;;;;;;;3.75;3.30;;;;;;;14.29;100.00;95565.72;1021760;29;20031;-72
2022/08/14 00:11:10;;;;;;;3.60;3.30;;;;;;;14.28;100.00;95572.84;1017259;29;20036;-73
2022/08/14 00:11:40;;;;;;;4.20;3.63;;;;;;;14.28;100.00;95562.28;1013378;29;20815;-71
2022/08/14 00:12:11;;;;;;;5.75;3.60;;;;;;;14.19;100.00;95552.72;1018035;29;20059;-72
2022/08/14 00:12:44;;;;;;;4.45;3.58;;;;;;;14.28;100.00;95558.88;1024364;28;20031;-72
2022/08/14 00:13:15;;;;;;;3.55;3.25;;;;;;;14.28;100.00;95562.28;1028810;28;20715;-72
2022/08/14 00:13:47;;;;;;;7.32;4.07;;;;;;;14.20;100.00;95554.25;1021396;29;20023;-72
2022/08/14 00:14:17;;;;;;;5.57;3.72;;;;;;;14.25;100.00;95556.81;1022512;28;20042;-73
2022/08/14 00:14:48;;;;;;;5.22;3.65;;;;;;;14.20;100.00;95544.50;1022117;28;20027;-72
2022/08/14 00:15:23;;;;;;;5.15;3.55;;;;;;;14.24;100.00;95556.03;1022157;28;20073;-71
2022/08/14 00:15:56;;;;;;;5.93;3.75;;;;;;;14.22;100.00;95547.63;1021978;29;20031;-72
2022/08/14 00:16:27;;;;;;;3.88;3.50;;;;;;;14.23;100.00;95553.69;1023047;28;20409;-72
2022/08/14 00:16:57;;;;;;;6.05;3.55;;;;;;;14.24;100.00;95548.09;1026772;28;20061;-72
2022/08/14 00:17:28;;;;;;;4.30;3.40;;;;;;;14.19;100.00;95542.94;1030532;28;20534;-72
2022/08/14 00:17:59;;;;;;;3.78;3.22;;;;;;;14.20;100.00;95541.84;1033675;28;20030;-72
2022/08/14 00:18:30;;;;;;;3.60;3.30;;;;;;;14.26;100.00;95547.84;1027733;28;20022;-72
2022/08/14 00:19:00;;;;;;;3.30;3.00;;;;;;;14.29;100.00;95548.03;1025643;28;20031;-72
2022/08/14 00:19:31;;;;;;;5.13;3.33;;;;;;;14.28;100.00;95541.16;1022075;29;20074;-72
2022/08/14 00:20:01;;;;;;;4.05;3.40;;;;;;;14.29;100.00;95545.41;1021851;29;20498;-71
2022/08/14 00:20:33;;;;;;;5.80;3.20;;;;;;;14.31;100.00;95550.38;1017990;29;20031;-72
2022/08/14 00:21:04;;;;;;;7.00;3.75;;;;;;;14.28;100.00;95538.53;1018061;28;20036;-71
2022/08/14 00:21:35;;;;;;;5.53;3.45;;;;;;;14.29;100.00;95544.63;1022270;28;20036;-72
2022/08/14 00:22:06;;;;;;;6.10;3.55;;;;;;;14.31;100.00;95547.72;1030384;28;20131;-72
2022/08/14 00:22:36;;;;;;;3.78;3.47;;;;;;;14.31;100.00;95545.09;1026613;28;20518;-73
2022/08/14 00:23:07;;;;;;;4.20;3.55;;;;;;;14.22;100.00;95537.06;1022821;28;20054;-72
2022/08/14 00:23:39;;;;;;;5.38;3.63;;;;;;;14.29;100.00;95545.41;1022848;29;20015;-72
2022/08/14 00:24:10;;;;;;;6.50;4.32;;;;;;;14.26;100.00;95537.28;1021204;28;20105;-72
2022/08/14 00:24:40;;;;;;;5.15;3.47;;;;;;;14.29;100.00;95544.63;1015675;29;20459;-72
2022/08/14 00:25:11;;;;;;;5.60;3.08;;;;;;;14.29;100.00;95552.53;1018810;29;20019;-72
2022/08/14 00:25:42;;;;;;;3.55;3.25;;;;;;;14.28;100.00;95549.09;1022737;28;20051;-72
2022/08/14 00:26:13;;;;;;;3.75;3.45;;;;;;;14.22;100.00;95539.72;1023228;28;20485;-72
2022/08/14 00:26:43;;;;;;;3.75;3.35;;;;;;;14.28;100.00;95540.41;1022843;28;20020;-72
2022/08/14 00:27:14;;;;;;;4.40;3.35;;;;;;;14.27;100.00;95538.84;1022404;29;20047;-72
2022/08/14 00:27:44;;;;;;;4.53;3.42;;;;;;;14.28;100.00;95543.81;1023033;28;20035;-71
2022/08/14 00:28:14;;;;;;;3.83;3.50;;;;;;;14.31;100.00;95545.09;1024775;28;20023;-72
2022/08/14 00:28:45;;;;;;;6.65;4.00;;;;;;;14.30;100.00;95538.25;1030650;28;20030;-71
2022/08/14 00:29:15;;;;;;;4.28;3.22;;;;;;;14.27;100.00;95534.34;1029239;28;20077;-72
2022/08/14 00:29:46;;;;;;;7.55;3.60;;;;;;;14.30;100.00;95540.91;1030665;28;20015;-71
2022/08/14 00:30:16;;;;;;;4.05;3.65;;;;;;;14.31;100.00;95535.31;1026654;28;20102;-72
2022/08/14 00:30:47;;;;;;;4.20;3.50;;;;;;;14.28;100.00;95530.63;1022402;28;20051;-72
2022/08/14 00:31:17;;;;;;;4.63;3.47;;;;;;;14.29;100.00;95537.47;1029608;28;20022;-71
2022/08/14 00:31:48;;;;;;;3.95;3.55;;;;;;;14.30;100.00;95532.97;1026920;28;20673;-71
2022/08/14 00:32:19;;;;;;;7.53;3.60;;;;;;;14.29;100.00;95532.19;1030560;28;20076;-72
2022/08/14 00:32:49;;;;;;;4.88;3.17;;;;;;;14.24;100.00;95534.91;1034707;28;20034;-72
2022/08/14 00:33:20;;;;;;;5.05;3.47;;;;;;;14.27;100.00;95539.63;1030488;28;20050;-72
2022/08/14 00:33:50;;;;;;;3.90;3.45;;;;;;;14.26;100.00;95540.69;1030515;28;20022;-72
2022/08/14 00:34:21;;;;;;;5.53;3.70;;;;;;;14.27;100.00;95538.84;1030593;28;20026;-72
2022/08/14 00:34:51;;;;;;;3.97;3.60;;;;;;;14.25;100.00;95533.88;1026542;28;20019;-72
2022/08/14 00:35:22;;;;;;;11.57;3.53;;;;;;;14.23;100.00;95533.34;1026648;28;20058;-72
2022/08/14 00:35:52;;;;;;;6.72;3.85;;;;;;;14.24;100.00;95534.91;1027932;28;20030;-72
2022/08/14 00:36:23;;;;;;;6.78;3.92;;;;;;;14.23;100.00;95537.84;1026788;28;20019;-72
2022/08/14 00:36:53;;;;;;;3.95;3.63;;;;;;;14.15;100.00;95520.81;1022776;29;20023;-73
2022/08/14 00:37:24;;;;;;;5.88;3.63;;;;;;;14.20;100.00;95527.88;1022527;29;20119;-72
2022/08/14 00:37:54;;;;;;;5.65;3.55;;;;;;;14.21;100.00;95529.44;1022560;28;20031;-72
2022/08/14 00:38:25;;;;;;;4.18;3.58;;;;;;;14.20;100.00;95536.56;1026677;28;20031;-72
2022/08/14 00:38:55;;;;;;;5.97;3.55;;;;;;;14.19;100.00;95529.75;1026703;28;20026;-72
2022/08/14 00:39:26;;;;;;;3.70;3.40;;;;;;;14.19;100.00;95527.09;1026225;28;20065;-71
2022/08/14 00:39:56;;;;;;;4.45;3.80;;;;;;;14.17;100.00;95529.22;1022813;29;20698;-72
2022/08/14 00:40:27;;;;;;;4.40;3.92;;;;;;;14.16;100.00;95530.31;1022648;28;20070;-72
2022/08/14 00:40:57;;;;;;;4.15;3.75;;;;;;;14.15;100.00;95532.19;1026760;28;20110;-72
2022/08/14 00:41:31;;;;;;;8.95;3.70;;;;;;;14.12;100.00;95527.47;1029843;28;20508;-71
2022/08/14 00:42:01;;;;;;;6.53;3.78;;;;;;;14.14;100.00;95525.31;1026564;28;20031;-72
2022/08/14 00:42:32;;;;;;;4.38;3.75;;;;;;;14.13;100.00;95530.88;1026634;28;20049;-72
2022/08/14 00:43:06;;;;;;;4.47;3.35;;;;;;;14.12;100.00;95524.06;1027237;28;20246;-72
2022/08/14 00:43:36;;;;;;;4.93;3.95;;;;;;;14.10;100.00;95531.47;1027091;28;20736;-72
2022/08/14 00:44:07;;;;;;;4.88;3.90;;;;;;;14.09;100.00;95529.91;1030696;28;20030;-72
2022/08/14 00:44:37;;;;;;;6.90;3.70;;;;;;;14.09;100.00;95527.28;1027010;28;20029;-72
2022/08/14 00:45:11;;;;;;;4.55;3.70;;;;;;;14.08;100.00;95533.59;1026743;28;20081;-72
2022/08/14 00:45:41;;;;;;;9.43;3.85;;;;;;;14.05;100.00;95526.25;1024399;28;20512;-72
2022/08/14 00:46:12;;;;;;;4.68;3.63;;;;;;;14.06;100.00;95530.50;1025777;28;20026;-72
2022/08/14 00:46:44;;;;;;;4.35;3.42;;;;;;;14.06;100.00;95527.84;1026838;28;20034;-72
2022/08/14 00:47:15;;;;;;;7.40;3.90;;;;;;;14.06;100.00;95527.84;1022638;28;20023;-72
2022/08/14 00:47:46;;;;;;;5.47;4.00;;;;;;;14.05;100.00;95534.19;1017683;29;20024;-72
2022/08/14 00:48:17;;;;;;;6.43;4.15;;;;;;;14.02;100.00;95527.66;1018984;29;20438;-72
2022/08/14 00:48:48;;;;;;;4.18;3.78;;;;;;;14.04;100.00;95529.97;1014911;29;20023;-72
2022/08/14 00:49:18;;;;;;;4.10;3.70;;;;;;;13.98;100.00;95523.22;1019059;29;20028;-72
2022/08/14 00:49:49;;;;;;;4.32;3.92;;;;;;;13.97;100.00;95522.44;1022603;29;20141;-72
2022/08/14 00:50:20;;;;;;;4.68;3.72;;;;;;;14.01;100.00;95530.56;1018869;28;20581;-72
2022/08/14 00:50:53;;;;;;;6.70;3.67;;;;;;;14.00;100.00;95524.50;1022640;29;20086;-72
2022/08/14 00:51:24;;;;;;;3.97;3.58;;;;;;;13.99;100.00;95530.84;1024926;28;20512;-72
2022/08/14 00:51:54;;;;;;;4.75;3.97;;;;;;;13.98;100.00;95526.63;1023078;28;20031;-72
2022/08/14 00:52:25;;;;;;;4.20;3.80;;;;;;;14.00;100.00;95526.38;1022975;28;20158;-72
2022/08/14 00:52:56;;;;;;;5.25;3.75;;;;;;;13.91;100.00;95511.19;1026423;28;20023;-72
2022/08/14 00:53:26;;;;;;;6.30;3.92;;;;;;;14.01;100.00;95527.91;1022921;28;20733;-72
2022/08/14 00:53:57;;;;;;;4.95;4.30;;;;;;;14.02;100.00;95532.16;1022690;28;20031;-72
2022/08/14 00:54:28;;;;;;;4.15;3.75;;;;;;;14.02;100.00;95525.00;1021923;28;20090;-72
2022/08/14 00:54:58;;;;;;;4.97;4.05;;;;;;;13.98;100.00;95523.22;1018794;29;20102;-72
2022/08/14 00:55:29;;;;;;;4.20;3.80;;;;;;;13.96;100.00;95517.47;1026454;28;20042;-72
2022/08/14 00:56:00;;;;;;;3.92;3.60;;;;;;;13.94;100.00;95530.94;1026642;28;20138;-72
2022/08/14 00:56:30;;;;;;;8.85;4.00;;;;;;;13.93;100.00;95524.09;1026286;28;20825;-73
2022/08/14 00:57:01;;;;;;;9.32;4.70;;;;;;;13.90;100.00;95519.41;1026433;28;20027;-72
2022/08/14 00:57:32;;;;;;;4.15;3.75;;;;;;;13.90;100.00;95519.41;1026756;28;20100;-71
2022/08/14 00:58:53;;;;;;;10.23;4.53;;;;;;;13.90;100.00;95524.66;1030777;28;20492;-72
2022/08/14 00:59:25;;;;;;;11.30;4.13;;;;;;;13.89;100.00;95518.63;1020978;28;20103;-72
2022/08/14 00:59:56;;;;;;;12.25;4.43;;;;;;;13.88;100.00;95526.81;1026369;28;20015;-72
2022/08/14 01:00:27;;;;;;;14.43;4.65;;;;;;;13.88;100.00;95522.34;1025333;28;20117;-72
2022/08/14 01:00:58;;;;;;;7.90;4.10;;;;;;;13.86;100.00;95527.09;1026497;28;20042;-72
2022/08/14 01:01:28;;;;;;;8.95;4.22;;;;;;;13.80;100.00;95520.34;1025283;28;20057;-72
2022/08/14 01:01:59;;;;;;;6.28;4.07;;;;;;;13.77;100.00;95515.63;1026692;28;20030;-72
2022/08/14 01:02:29;;;;;;;18.10;5.03;;;;;;;13.82;100.00;95522.69;1030365;28;20073;-72
2022/08/14 01:03:00;;;;;;;4.63;4.03;;;;;;;13.80;100.00;95524.84;1029204;28;20062;-72
2022/08/14 01:03:32;;;;;;;12.20;4.85;;;;;;;13.80;100.00;95525.59;1022344;29;20122;-72
2022/08/14 01:04:03;;;;;;;7.75;4.07;;;;;;;13.71;100.00;95506.22;1018608;29;20030;-72
2022/08/14 01:04:34;;;;;;;8.32;4.30;;;;;;;13.78;100.00;95522.50;1018738;29;20034;-72
2022/08/14 01:05:06;;;;;;;9.25;4.18;;;;;;;13.77;100.00;95518.28;1026131;28;20090;-72
2022/08/14 01:05:36;;;;;;;8.35;4.38;;;;;;;13.77;100.00;95523.53;1018524;29;20028;-72
2022/08/14 01:06:08;;;;;;;8.60;4.53;;;;;;;13.76;100.00;95519.34;1018638;29;20529;-72
2022/08/14 01:06:41;;;;;;;4.70;3.97;;;;;;;13.74;100.00;95518.06;1022547;28;20030;-73
2022/08/14 01:07:16;;;;;;;4.80;4.07;;;;;;;13.72;100.00;95513.09;1022774;29;20020;-72
2022/08/14 01:07:47;;;;;;;6.00;3.70;;;;;;;13.74;100.00;95516.22;1018384;29;20060;-72
2022/08/14 01:08:19;;;;;;;7.47;4.50;;;;;;;13.73;100.00;95514.66;1022494;28;20630;-72
2022/08/14 01:08:50;;;;;;;4.68;4.07;;;;;;;13.72;100.00;95514.94;1024645;28;20024;-72
2022/08/14 01:09:21;;;;;;;5.28;3.67;;;;;;;13.72;100.00;95507.81;1026808;28;20101;-72
2022/08/14 01:09:56;;;;;;;6.18;4.20;;;;;;;13.66;100.00;95499.19;1029797;28;20061;-72
2022/08/14 01:10:49;;;;;;;9.35;3.80;;;;;;;13.70;100.00;95509.94;1030576;28;20029;-71
2022/08/14 01:11:21;;;;;;;16.42;4.90;;;;;;;13.62;100.00;95497.44;1022248;28;20039;-73
2022/08/14 01:11:52;;;;;;;4.70;3.75;;;;;;;13.64;100.00;95500.53;1022319;28;20042;-72
2022/08/14 01:12:23;;;;;;;16.58;4.75;;;;;;;13.65;100.00;95502.91;1018397;28;20066;-71
2022/08/14 01:12:53;;;;;;;16.80;5.03;;;;;;;13.62;100.00;95507.97;1022283;29;20027;-72
2022/08/14 01:13:26;;;;;;;4.40;4.00;;;;;;;13.54;100.00;95493.56;1018968;28;20067;-72
2022/08/14 01:13:59;;;;;;;26.92;6.75;;;;;;;13.58;100.00;95507.78;1026704;28;20034;-71
2022/08/14 01:14:29;;;;;;;8.52;4.22;;;;;;;13.57;100.00;95505.41;1029218;28;20042;-71
2022/08/14 01:15:00;;;;;;;7.45;3.90;;;;;;;13.55;100.00;95504.91;1026805;28;20460;-72
2022/08/14 01:15:31;;;;;;;6.30;3.85;;;;;;;13.50;100.00;95494.44;1030620;28;20552;-72
2022/08/14 01:16:04;;;;;;;6.75;4.10;;;;;;;13.55;100.00;95503.06;1030541;28;20041;-72
2022/08/14 01:16:35;;;;;;;6.72;4.18;;;;;;;13.55;100.00;95497.00;1030389;28;20093;-72
2022/08/14 01:17:05;;;;;;;5.03;4.15;;;;;;;13.55;100.00;95499.66;1030338;28;20030;-72
2022/08/14 01:21:05;;;;;;;4.57;4.05;;;;;;;13.47;100.00;95503.69;1029870;28;20018;-71
2022/08/14 01:21:39;;;;;;;5.50;4.15;;;;;;;13.39;100.00;95491.19;1022079;29;20034;-72
2022/08/14 01:22:10;;;;;;;5.30;4.18;;;;;;;13.44;100.00;95499.78;1019268;28;20027;-72
2022/08/14 01:22:41;;;;;;;7.90;4.68;;;;;;;13.44;100.00;95497.13;1022056;28;20485;-72
2022/08/14 01:23:12;;;;;;;7.03;4.20;;;;;;;13.38;100.00;95490.41;1023049;28;20050;-71
2022/08/14 01:23:47;;;;;;;4.43;3.90;;;;;;;13.41;100.00;95494.28;1026469;28;20106;-72
2022/08/14 01:24:20;;;;;;;6.63;4.00;;;;;;;13.38;100.00;95497.50;1030171;28;20022;-72
2022/08/14 01:24:50;;;;;;;4.40;4.00;;;;;;;13.41;100.00;95497.75;1022343;28;20102;-72
2022/08/14 01:25:21;;;;;;;4.68;3.75;;;;;;;13.38;100.00;95489.59;1026335;28;20027;-72
2022/08/14 01:25:51;;;;;;;4.60;4.18;;;;;;;13.41;100.00;95497.75;1023396;28;20068;-71
2022/08/14 01:26:22;;;;;;;4.82;4.35;;;;;;;13.39;100.00;95497.22;1022391;29;20035;-72
2022/08/14 01:26:53;;;;;;;6.18;4.40;;;;;;;13.40;100.00;95496.16;1022442;29;20035;-71
2022/08/14 01:27:30;;;;;;;8.25;4.00;;;;;;;13.38;100.00;95487.75;1019985;28;20042;-72
2022/08/14 01:28:00;;;;;;;5.35;4.20;;;;;;;13.40;100.00;95493.50;1025412;28;20015;-72
2022/08/14 01:28:33;;;;;;;5.30;4.03;;;;;;;13.34;100.00;95481.47;1026271;28;20026;-72
2022/08/14 01:29:04;;;;;;;5.38;3.90;;;;;;;13.39;100.00;95493.81;1023413;28;20114;-72
2022/08/14 01:29:36;;;;;;;4.18;3.78;;;;;;;13.33;100.00;95490.47;1025862;28;20536;-71
2022/08/14 01:30:07;;;;;;;8.80;4.40;;;;;;;13.38;100.00;95498.31;1014463;29;20024;-72
2022/08/14 01:30:40;;;;;;;7.25;4.70;;;;;;;13.37;100.00;95488.81;1014376;29;20032;-72
2022/08/14 01:31:14;;;;;;;4.93;4.35;;;;;;;13.38;100.00;95493.03;1020920;29;20018;-72
2022/08/14 01:31:51;;;;;;;9.50;4.63;;;;;;;13.38;100.00;95495.66;1021594;29;20038;-72
2022/08/14 01:32:24;;;;;;;6.28;4.20;;;;;;;13.37;100.00;95496.72;1022359;29;20042;-72
2022/08/14 01:32:54;;;;;;;5.80;4.38;;;;;;;13.36;100.00;95489.09;1024055;28;20341;-72
2022/08/14 01:33:28;;;;;;;6.25;4.22;;;;;;;13.34;100.00;95484.13;1020818;29;20608;-72
2022/08/14 01:34:00;;;;;;;6.38;4.15;;;;;;;13.33;100.00;95490.47;1013678;29;20565;-72
2022/08/14 01:34:31;;;;;;;6.22;4.30;;;;;;;13.33;100.00;95479.91;1019205;29;20119;-71
2022/08/14 01:35:06;;;;;;;5.35;3.75;;;;;;;13.30;100.00;95475.22;1026456;28;20078;-72
2022/08/14 01:35:36;;;;;;;4.05;3.75;;;;;;;13.30;100.00;95485.75;1023669;28;20031;-72
2022/08/14 01:36:08;;;;;;;5.72;4.30;;;;;;;13.30;100.00;95491.03;1029334;28;20084;-71
2022/08/14 01:36:38;;;;;;;5.68;4.07;;;;;;;13.30;100.00;95480.50;1029676;28;20041;-71
2022/08/14 01:37:09;;;;;;;5.00;4.00;;;;;;;13.32;100.00;95477.59;1031135;28;20117;-72
2022/08/14 01:37:43;;;;;;;4.80;4.20;;;;;;;13.33;100.00;95481.78;1030177;28;20088;-71
2022/08/14 01:38:14;;;;;;;6.10;4.13;;;;;;;13.31;100.00;95482.06;1030231;28;20133;-72
2022/08/14 01:38:47;;;;;;;5.05;4.50;;;;;;;13.31;100.00;95482.06;1025815;28;20023;-72
2022/08/14 01:39:17;;;;;;;7.28;4.13;;;;;;;13.26;100.00;95468.97;1020848;28;20028;-72
2022/08/14 01:39:48;;;;;;;6.25;4.25;;;;;;;13.32;100.00;95481.00;1022380;29;20126;-73
2022/08/14 01:40:22;;;;;;;6.10;4.72;;;;;;;13.33;100.00;95479.91;1018727;29;20663;-72
2022/08/14 01:40:52;;;;;;;7.47;4.38;;;;;;;13.34;100.00;95476.22;1022748;28;20031;-71
2022/08/14 01:41:25;;;;;;;5.35;4.82;;;;;;;13.33;100.00;95473.88;1025875;28;20030;-72
2022/08/14 01:41:57;;;;;;;4.90;4.45;;;;;;;13.28;100.00;95468.66;1031099;28;20038;-72
2022/08/14 01:42:28;;;;;;;5.63;4.55;;;;;;;13.34;100.00;95473.56;1030527;28;20468;-72
2022/08/14 01:42:59;;;;;;;7.75;4.35;;;;;;;13.30;100.00;95471.81;1030158;28;20034;-72
2022/08/14 01:43:29;;;;;;;6.60;4.60;;;;;;;13.33;100.00;95474.66;1025911;28;20031;-73
2022/08/14 01:44:01;;;;;;;12.07;4.47;;;;;;;13.26;100.00;95463.69;1023245;28;20039;-72
2022/08/14 01:44:31;;;;;;;5.72;4.35;;;;;;;13.32;100.00;95473.09;1030140;28;20567;-72
2022/08/14 01:45:10;;;;;;;9.77;4.80;;;;;;;13.26;100.00;95462.91;1026600;28;20035;-72
2022/08/14 01:45:41;;;;;;;8.43;4.57;;;;;;;13.26;100.00;95465.53;1022378;29;20471;-72
2022/08/14 01:46:12;;;;;;;5.03;4.20;;;;;;;13.28;100.00;95469.47;1017755;29;20119;-72
2022/08/14 01:46:45;;;;;;;4.97;4.47;;;;;;;13.23;100.00;95460.81;1026298;28;20035;-72
2022/08/14 01:47:17;;;;;;;7.65;4.25;;;;;;;13.27;100.00;95465.25;1026345;28;20046;-73
2022/08/14 01:47:48;;;;;;;7.18;4.25;;;;;;;13.26;100.00;95463.69;1025269;28;20042;-72
2022/08/14 01:48:18;;;;;;;5.97;4.30;;;;;;;13.25;100.00;95456.09;1026926;28;20030;-72
2022/08/14 01:48:50;;;;;;;7.60;4.20;;;;;;;13.25;100.00;95459.50;1030205;28;20030;-72
2022/08/14 01:49:21;;;;;;;5.47;4.47;;;;;;;13.21;100.00;95456.63;1030268;28;20089;-73
2022/08/14 01:49:53;;;;;;;5.50;4.43;;;;;;;13.22;100.00;95462.66;1026654;28;20509;-73
2022/08/14 01:50:23;;;;;;;7.22;4.50;;;;;;;13.23;100.00;95461.59;1030290;28;20069;-72
2022/08/14 01:50:54;;;;;;;5.10;4.00;;;;;;;13.21;100.00;95459.25;1030455;28;20026;-73
2022/08/14 01:51:27;;;;;;;6.45;4.55;;;;;;;13.18;100.00;95456.41;1029836;28;20049;-74
2022/08/14 01:51:57;;;;;;;6.22;4.10;;;;;;;13.21;100.00;95461.88;1026291;28;20117;-72
2022/08/14 01:52:35;;;;;;;5.82;5.20;;;;;;;13.18;100.00;95459.81;1026302;28;20050;-72
2022/08/14 01:53:07;;;;;;;5.63;4.35;;;;;;;13.16;100.00;95458.53;1026475;28;20105;-73
2022/08/14 01:53:41;;;;;;;4.78;4.28;;;;;;;13.13;100.00;95451.19;1024850;28;20115;-73
2022/08/14 01:54:13;;;;;;;6.10;4.22;;;;;;;13.14;100.00;95460.66;1030470;28;20449;-73
2022/08/14 01:54:44;;;;;;;5.25;4.75;;;;;;;13.12;100.00;95458.31;1026268;28;20715;-72
2022/08/14 01:55:14;;;;;;;5.30;4.28;;;;;;;13.11;100.00;95450.69;1027492;28;20027;-72
2022/08/14 01:55:46;;;;;;;4.88;4.32;;;;;;;13.13;100.00;95449.34;1030546;28;20504;-73
2022/08/14 01:56:17;;;;;;;6.15;4.60;;;;;;;13.09;100.00;95453.63;1022503;28;20145;-73
2022/08/14 01:56:53;;;;;;;6.28;4.93;;;;;;;13.12;100.00;95452.28;1018360;29;20075;-72
2022/08/14 01:57:24;;;;;;;5.22;4.45;;;;;;;13.11;100.00;95448.88;1018620;29;20529;-73
2022/08/14 01:57:54;;;;;;;4.95;4.45;;;;;;;13.10;100.00;95447.28;1019060;29;20024;-74
2022/08/14 01:58:26;;;;;;;5.68;4.43;;;;;;;13.11;100.00;95448.88;1023289;28;20034;-72
2022/08/14 01:58:57;;;;;;;5.07;4.57;;;;;;;13.10;100.00;95438.59;1026673;28;20673;-73
2022/08/14 01:59:32;;;;;;;8.88;4.80;;;;;;;13.11;100.00;95445.41;1021674;28;20035;-72
2022/08/14 02:00:07;;;;;;;7.40;5.22;;;;;;;13.08;100.00;95448.66;1017292;28;20031;-72
2022/08/14 02:00:38;;;;;;;8.68;4.63;;;;;;;13.08;100.00;95451.28;1017459;29;20028;-72
2022/08/14 02:01:08;;;;;;;6.25;4.30;;;;;;;13.02;100.00;95436.63;1025534;28;20042;-72
2022/08/14 02:01:39;;;;;;;5.07;4.15;;;;;;;13.06;100.00;95450.78;1022042;28;20130;-72
2022/08/14 02:02:13;;;;;;;7.45;4.38;;;;;;;13.04;100.00;95445.00;1030194;28;20041;-72
2022/08/14 02:02:43;;;;;;;5.78;4.57;;;;;;;13.00;100.00;95444.00;1025869;28;20520;-72
2022/08/14 02:03:14;;;;;;;6.07;4.53;;;;;;;13.03;100.00;95449.50;1024061;28;20041;-72
2022/08/14 02:03:45;;;;;;;5.95;4.22;;;;;;;12.97;100.00;95435.59;1025707;28;20595;-71
2022/08/14 02:04:16;;;;;;;4.88;4.43;;;;;;;13.01;100.00;95440.31;1019117;29;20028;-72
2022/08/14 02:04:47;;;;;;;5.13;4.63;;;;;;;12.97;100.00;95443.50;1022542;28;20031;-72
2022/08/14 02:05:17;;;;;;;6.05;4.55;;;;;;;12.97;100.00;95442.72;1026242;28;20037;-72
2022/08/14 02:05:48;;;;;;;4.97;4.28;;;;;;;12.97;100.00;95446.13;1029251;28;20042;-71
2022/08/14 02:06:20;;;;;;;7.72;4.10;;;;;;;12.96;100.00;95441.94;1034392;28;20126;-72
2022/08/14 02:06:51;;;;;;;7.97;4.43;;;;;;;12.94;100.00;95446.72;1030201;28;20030;-72
2022/08/14 02:07:21;;;;;;;6.97;4.10;;;;;;;12.93;100.00;95444.38;1026345;28;20023;-72
2022/08/14 02:07:52;;;;;;;4.97;4.22;;;;;;;12.91;100.00;95443.84;1022229;29;20031;-72
2022/08/14 02:08:23;;;;;;;5.45;4.18;;;;;;;12.86;100.00;95434.19;1022003;28;20070;-72
2022/08/14 02:08:54;;;;;;;4.35;3.95;;;;;;;12.84;100.00;95436.31;1018630;29;20043;-72
2022/08/14 02:09:24;;;;;;;5.78;4.75;;;;;;;12.90;100.00;95447.56;1014332;29;20043;-72
2022/08/14 02:09:55;;;;;;;7.07;4.75;;;;;;;12.88;100.00;95445.22;1015867;29;20031;-71
2022/08/14 02:10:27;;;;;;;5.00;4.35;;;;;;;12.89;100.00;95446.00;1018600;29;20043;-73
2022/08/14 02:11:21;;;;;;;8.50;4.20;;;;;;;12.87;100.00;95438.38;1022641;28;20019;-72
2022/08/14 02:11:51;;;;;;;5.13;4.28;;;;;;;12.88;100.00;95437.31;1029439;28;20014;-72
2022/08/14 02:12:23;;;;;;;5.97;4.50;;;;;;;12.87;100.00;95438.38;1030224;28;20018;-71
2022/08/14 02:12:55;;;;;;;6.75;3.97;;;;;;;12.86;100.00;95439.44;1030129;28;20124;-71
2022/08/14 02:13:26;;;;;;;5.50;4.32;;;;;;;12.84;100.00;95433.66;1028934;28;20146;-73
2022/08/14 02:13:59;;;;;;;7.65;4.60;;;;;;;12.84;100.00;95436.31;1026293;28;20437;-72
2022/08/14 02:14:30;;;;;;;5.60;4.90;;;;;;;12.82;100.00;95433.19;1020588;29;20028;-72
2022/08/14 02:15:02;;;;;;;5.50;4.03;;;;;;;12.80;100.00;95424.78;1025886;28;20031;-72
2022/08/14 02:15:33;;;;;;;7.22;4.00;;;;;;;12.83;100.00;95437.38;1026101;28;20027;-72
2022/08/14 02:16:03;;;;;;;5.30;4.45;;;;;;;12.86;100.00;95436.03;1018309;29;20027;-72
2022/08/14 02:16:37;;;;;;;5.25;4.38;;;;;;;12.87;100.00;95434.97;1018784;29;20032;-71
2022/08/14 02:17:08;;;;;;;5.32;4.68;;;;;;;12.79;100.00;95422.44;1022656;28;20055;-72
2022/08/14 02:17:39;;;;;;;6.15;4.40;;;;;;;12.85;100.00;95430.00;1023330;28;20023;-72
2022/08/14 02:18:09;;;;;;;8.82;4.07;;;;;;;12.78;100.00;95426.94;1026202;28;20026;-72
2022/08/14 02:18:40;;;;;;;4.97;4.45;;;;;;;12.85;100.00;95431.84;1010846;29;20048;-72
2022/08/14 02:19:13;;;;;;;5.15;4.25;;;;;;;12.79;100.00;95428.50;1014005;29;20027;-72
2022/08/14 02:19:44;;;;;;;5.78;4.30;;;;;;;12.83;100.00;95433.97;1014858;29;20565;-72
2022/08/14 02:20:16;;;;;;;7.30;4.05;;;;;;;12.79;100.00;95428.50;1019423;28;20040;-72
2022/08/14 02:20:47;;;;;;;6.53;4.40;;;;;;;12.83;100.00;95428.69;1029146;28;20081;-71
2022/08/14 02:21:19;;;;;;;4.65;4.15;;;;;;;12.83;100.00;95434.75;1029362;28;20516;-71
2022/08/14 02:21:51;;;;;;;4.88;4.18;;;;;;;12.78;100.00;95420.88;1030004;28;20030;-71
2022/08/14 02:22:21;;;;;;;5.53;4.20;;;;;;;12.85;100.00;95432.63;1022111;28;20022;-71
2022/08/14 02:22:52;;;;;;;7.57;4.47;;;;;;;12.84;100.00;95431.03;1021810;29;20118;-72
2022/08/14 02:23:26;;;;;;;5.28;4.50;;;;;;;12.84;100.00;95430.25;1022225;29;20034;-72
2022/08/14 02:23:56;;;;;;;5.10;4.20;;;;;;;12.80;100.00;95416.88;1026469;28;20039;-72
2022/08/14 02:24:30;;;;;;;5.25;4.10;;;;;;;12.83;100.00;95426.84;1022297;29;20616;-72
2022/08/14 02:25:00;;;;;;;5.38;4.30;;;;;;;12.82;100.00;95422.66;1018386;29;20034;-72
2022/08/14 02:25:31;;;;;;;8.15;4.18;;;;;;;12.85;100.00;95421.31;1022192;29;20877;-71
2022/08/14 02:26:03;;;;;;;5.10;4.68;;;;;;;12.79;100.00;95412.69;1022089;29;20035;-72
2022/08/14 02:26:38;;;;;;;4.88;4.38;;;;;;;12.86;100.00;95421.00;1026325;28;20109;-71
2022/08/14 02:27:12;;;;;;;8.82;5.05;;;;;;;12.81;100.00;95415.03;1022189;29;20444;-71
2022/08/14 02:27:44;;;;;;;4.57;4.18;;;;;;;12.82;100.00;95417.38;1018091;29;20039;-72
2022/08/14 02:28:14;;;;;;;5.53;4.32;;;;;;;12.84;100.00;95415.25;1026208;28;20023;-72
2022/08/14 02:28:45;;;;;;;7.13;4.18;;;;;;;12.78;100.00;95408.50;1026247;28;20054;-72
2022/08/14 02:29:22;;;;;;;5.97;5.40;;;;;;;12.80;100.00;95408.19;1026984;28;20014;-72
2022/08/14 02:29:55;;;;;;;5.70;4.20;;;;;;;12.81;100.00;95410.56;1022544;28;20800;-72
2022/08/14 02:30:26;;;;;;;4.55;4.15;;;;;;;12.81;100.00;95415.03;1022741;29;20038;-72
2022/08/14 02:30:59;;;;;;;4.82;4.32;;;;;;;12.77;100.00;95404.28;1020841;28;20031;-72